Skagway, AK (99840)

2:29 PM AKDT on August 04, 2015 (GMT -0800)
RAWS | | Change Station
CLOSE
Current Station
Personal Weather Station
Location: Skagway, AK
Elevation: 919 ft
Nearby Weather Stations

Elev 919 ft 59.66 °N, 135.27 °W | Updated 1 hour ago

Clear
Clear
79.0 °F
Feels Like 79.0 °F
N
1.0
Wind Variable Wind from NNE
Gusts 3.0 mph

Today
High -- | Low -- °F
--% Chance of Precip.
Yesterday
High -- | Low -- °F
Precip. -- in
4:52 AM 9:20 PM
Waning Gibbous, 74% visible
Pressure 29.87 in
Visibility 10.0 miles
Clouds Clear
Dew Point 47.0 °F
Humidity 33%
Rainfall in
Snow Depth Not available.
UV 7 out of 12
Pollen Not available.
Air Quality Not available.
Flu Activity Not available.
METAR PAGY 042153Z AUTO 23006KT 10SM CLR 21/10 A2987 RMK AO2 SLP114 T02110100 TSNO $

More Conditions Fewer Conditions

Pressure 29.87 in
Visibility 10.0 miles
Clouds Clear
Dew Point 47.0 °F
Humidity 33%
Rainfall in
Snow Depth Not available.
UV 7 out of 12
Pollen Not available.
Air Quality Not available.
Flu Activity Not available.
METAR PAGY 042153Z AUTO 23006KT 10SM CLR 21/10 A2987 RMK AO2 SLP114 T02110100 TSNO $

More Conditions Fewer Conditions

10-Day Weather Forecast

×

Almanac

Astronomy

Aug. 04, 2015 Rise Set
Actual Time
Civil Twilight
Nautical Twilight
Astronomical Twilight
Moon
Length of Visible Light
Length of Day
Tomorrow will be .
, % of the Moon is Illuminated

Today's Extremes

State Highs State Lows

Community

WunderPhotos

Upload Photos

1,844,007 photos uploaded!

WunderBlogs® & News

Nearby

Air Quality

  Air Quality AQ Index Pollutant
Not available.

Snow Depth

Station Depth Elevation

Earthquake Activity

City Distance Mag. Time & Date
Minimum magnitude displayed is 2.5.

Coastal Water Temperatures

Place Temperature

Stations

Nearby Weather Stations

Station Location Temp. Windchill Dew Point Humidity Wind Precip. Elev Updated Type